createdAt,value
2018-03-24T00:01:12.719Z,7.42
2018-03-24T00:03:41.667Z,7.33
2018-03-24T00:06:10.897Z,7.37
2018-03-24T00:08:40.120Z,7.41
2018-03-24T00:11:09.608Z,7.35
2018-03-24T00:13:39.821Z,7.26
2018-03-24T00:16:08.718Z,7.16
2018-03-24T00:18:37.614Z,7.21
2018-03-24T00:21:07.002Z,7.19
2018-03-24T00:23:35.933Z,7.22
2018-03-24T00:26:05.663Z,7.22
2018-03-24T00:28:34.568Z,7.21
2018-03-24T00:31:04.802Z,7.19
2018-03-24T00:33:33.697Z,7.20
2018-03-24T00:36:05.044Z,7.18
2018-03-24T00:38:33.990Z,7.14
2018-03-24T00:41:02.923Z,7.11
2018-03-24T00:43:31.827Z,7.15
2018-03-24T00:46:00.727Z,7.10
2018-03-24T00:48:30.104Z,7.09
2018-03-24T00:50:59.036Z,7.07
2018-03-24T00:53:27.911Z,7.03
2018-03-24T00:55:57.285Z,7.01
2018-03-24T00:58:26.175Z,6.99
2018-03-24T01:00:55.167Z,6.93
2018-03-24T01:03:24.453Z,6.90
2018-03-24T01:05:53.416Z,6.89
2018-03-24T01:08:22.271Z,6.84
2018-03-24T01:10:52.646Z,6.82
2018-03-24T01:13:21.527Z,6.82
2018-03-24T01:15:50.380Z,6.80
2018-03-24T01:18:19.786Z,6.78
2018-03-24T01:20:48.677Z,6.77
2018-03-24T01:23:17.603Z,6.78
2018-03-24T01:25:46.523Z,6.73
2018-03-24T01:28:16.052Z,6.67
2018-03-24T01:30:45.358Z,6.67
2018-03-24T01:33:14.399Z,6.64
2018-03-24T01:35:43.285Z,6.65
2018-03-24T01:38:12.733Z,6.68
2018-03-24T01:40:41.619Z,6.66
2018-03-24T01:43:10.533Z,6.60
2018-03-24T01:45:39.862Z,6.58
2018-03-24T01:48:08.791Z,6.59
2018-03-24T01:50:38.318Z,6.55
2018-03-24T01:53:07.796Z,6.56
2018-03-24T01:55:36.678Z,6.56
2018-03-24T01:58:06.700Z,6.58
2018-03-24T02:00:37.118Z,6.58
2018-03-24T02:03:06.215Z,6.52
2018-03-24T02:05:35.164Z,6.51
2018-03-24T02:08:05.318Z,6.50
2018-03-24T02:10:34.191Z,6.46
2018-03-24T02:13:03.870Z,6.44
2018-03-24T02:15:32.836Z,6.44
2018-03-24T02:18:02.911Z,6.39
2018-03-24T02:20:32.374Z,6.39
2018-03-24T02:23:01.278Z,6.36
2018-03-24T02:25:30.295Z,6.36
2018-03-24T02:27:59.516Z,6.36
2018-03-24T02:30:28.452Z,6.34
2018-03-24T02:32:57.407Z,6.29
2018-03-24T02:35:26.402Z,6.31
2018-03-24T02:37:55.298Z,6.33
2018-03-24T02:40:24.234Z,6.32
2018-03-24T02:42:53.603Z,6.32
2018-03-24T02:45:22.482Z,6.33
2018-03-24T02:47:51.347Z,6.28
2018-03-24T02:50:20.279Z,6.24
2018-03-24T02:52:49.219Z,6.24
2018-03-24T02:55:18.549Z,6.25
2018-03-24T02:57:47.443Z,6.22
2018-03-24T03:00:16.364Z,6.23
2018-03-24T03:02:45.728Z,6.23
2018-03-24T03:05:14.602Z,6.22
2018-03-24T03:07:43.531Z,6.21
2018-03-24T03:10:12.872Z,6.21
2018-03-24T03:12:41.778Z,6.17
2018-03-24T03:15:10.867Z,6.19
2018-03-24T03:17:39.764Z,6.16
2018-03-24T03:20:08.755Z,6.14
2018-03-24T03:22:37.744Z,6.12
2018-03-24T03:25:07.956Z,6.10
2018-03-24T03:27:36.875Z,6.06
2018-03-24T03:30:06.840Z,6.04
2018-03-24T03:32:35.761Z,6.05
2018-03-24T03:35:04.942Z,6.04
2018-03-24T03:37:35.207Z,6.04
2018-03-24T03:40:05.463Z,6.01
2018-03-24T03:42:34.448Z,6.00
2018-03-24T03:45:05.070Z,6.00
2018-03-24T03:47:34.098Z,5.97
2018-03-24T03:50:05.142Z,5.96
2018-03-24T03:52:34.377Z,5.96
2018-03-24T03:55:03.816Z,5.94
2018-03-24T03:57:32.706Z,5.95
2018-03-24T04:00:04.056Z,5.91
2018-03-24T04:02:33.024Z,5.99
2018-03-24T04:05:02.344Z,6.00
2018-03-24T04:07:31.443Z,6.01
2018-03-24T04:10:00.378Z,6.00
2018-03-24T04:12:29.562Z,5.97
2018-03-24T04:14:58.425Z,5.98
2018-03-24T04:17:27.266Z,5.99
2018-03-24T04:20:27.017Z,6.01
2018-03-24T04:22:55.904Z,5.97
2018-03-24T04:25:25.057Z,6.00
2018-03-24T04:27:53.952Z,5.97
2018-03-24T04:30:22.835Z,5.97
2018-03-24T04:32:52.300Z,5.95
2018-03-24T04:35:21.782Z,5.91
2018-03-24T04:37:50.699Z,5.87
2018-03-24T04:40:19.843Z,5.87
2018-03-24T04:42:48.791Z,5.89
2018-03-24T04:45:18.110Z,5.90
2018-03-24T04:47:47.062Z,5.89
2018-03-24T04:50:15.943Z,5.88
2018-03-24T04:52:44.882Z,5.85
2018-03-24T04:55:14.078Z,5.83
2018-03-24T04:57:42.947Z,5.79
2018-03-24T05:00:11.826Z,5.81
2018-03-24T05:02:41.045Z,5.79
2018-03-24T05:05:10.218Z,5.82
2018-03-24T05:07:39.118Z,5.81
2018-03-24T05:10:08.326Z,5.81
2018-03-24T05:12:37.163Z,5.74
2018-03-24T05:15:06.572Z,5.74
2018-03-24T05:17:35.698Z,5.74
2018-03-24T05:20:05.571Z,5.76
2018-03-24T05:22:35.094Z,5.78
2018-03-24T05:25:04.474Z,5.80
2018-03-24T05:27:33.304Z,5.77
2018-03-24T05:30:04.497Z,5.81
2018-03-24T05:32:33.811Z,5.82
2018-03-24T05:35:02.738Z,5.82
2018-03-24T05:37:31.872Z,5.85
2018-03-24T05:40:00.782Z,5.85
2018-03-24T05:42:29.642Z,5.82
2018-03-24T05:44:58.919Z,5.80
2018-03-24T05:47:27.804Z,5.76
2018-03-24T05:49:56.755Z,5.78
2018-03-24T05:52:25.905Z,5.76
2018-03-24T05:54:55.106Z,5.76
2018-03-24T05:57:24.096Z,5.77
2018-03-24T05:59:54.649Z,5.77
2018-03-24T06:02:23.880Z,5.77
2018-03-24T06:04:52.946Z,5.76
2018-03-24T06:07:21.855Z,5.76
2018-03-24T06:09:50.732Z,5.80
2018-03-24T06:12:20.127Z,5.80
2018-03-24T06:14:49.097Z,5.78
2018-03-24T06:17:18.380Z,5.82
2018-03-24T06:19:47.588Z,5.82
2018-03-24T06:22:16.525Z,5.94
2018-03-24T06:24:45.447Z,6.00
2018-03-24T06:27:15.840Z,6.01
2018-03-24T06:29:44.866Z,6.02
2018-03-24T06:32:13.982Z,6.09
2018-03-24T06:34:43.289Z,6.14
2018-03-24T06:37:12.373Z,6.25
2018-03-24T06:39:41.327Z,6.35
2018-03-24T06:42:10.343Z,6.46
2018-03-24T06:44:39.233Z,6.48
2018-03-24T06:47:08.478Z,6.57
2018-03-24T06:49:37.483Z,6.68
2018-03-24T06:52:06.767Z,6.76
2018-03-24T06:54:35.967Z,6.78
2018-03-24T06:57:05.148Z,6.82
2018-03-24T06:59:34.025Z,6.82
2018-03-24T07:02:05.127Z,6.92
2018-03-24T07:04:34.060Z,7.00
2018-03-24T07:07:03.219Z,7.06
2018-03-24T07:09:32.779Z,7.10
2018-03-24T07:12:03.489Z,7.19
2018-03-24T07:14:32.628Z,7.26
2018-03-24T07:17:02.086Z,7.27
2018-03-24T07:19:31.325Z,7.25
2018-03-24T07:22:01.099Z,7.27
2018-03-24T07:24:30.607Z,7.30
2018-03-24T07:27:00.113Z,7.39
2018-03-24T07:29:30.565Z,7.37
2018-03-24T07:32:00.143Z,7.41
2018-03-24T07:34:29.239Z,7.41
2018-03-24T07:36:58.659Z,7.45
2018-03-24T07:39:27.540Z,7.52
2018-03-24T07:41:56.444Z,7.57
2018-03-24T07:44:25.765Z,7.62
2018-03-24T07:46:54.683Z,7.62
2018-03-24T07:49:23.920Z,7.70
2018-03-24T07:51:53.092Z,7.57
2018-03-24T07:54:22.351Z,7.65
2018-03-24T07:56:51.246Z,7.73
2018-03-24T07:59:20.339Z,7.82
2018-03-24T08:01:49.293Z,7.97
2018-03-24T08:04:19.473Z,8.08
2018-03-24T08:06:48.327Z,8.25
2018-03-24T08:09:17.615Z,8.36
2018-03-24T08:11:46.823Z,8.48
2018-03-24T08:14:15.695Z,8.70
2018-03-24T08:16:44.595Z,8.92
2018-03-24T08:19:13.893Z,9.18
2018-03-24T08:21:43.155Z,9.41
2018-03-24T08:24:12.057Z,9.64
2018-03-24T08:26:41.214Z,9.96
2018-03-24T08:29:10.655Z,10.33
2018-03-24T08:31:39.555Z,10.86
2018-03-24T08:34:08.756Z,11.24
2018-03-24T08:36:37.752Z,11.54
2018-03-24T08:39:06.981Z,11.88
2018-03-24T08:41:35.854Z,11.82
2018-03-24T08:44:05.706Z,12.10
2018-03-24T08:46:35.115Z,12.23
2018-03-24T08:49:04.430Z,12.25
2018-03-24T08:51:33.484Z,12.57
2018-03-24T08:54:03.748Z,12.87
2018-03-24T08:56:32.635Z,12.94
2018-03-24T08:59:02.546Z,13.14
2018-03-24T09:01:31.762Z,13.15
2018-03-24T09:04:00.678Z,13.09
2018-03-24T09:06:30.126Z,13.10
2018-03-24T09:08:59.515Z,13.13
2018-03-24T09:12:58.664Z,13.45
2018-03-24T09:15:27.842Z,14.00
2018-03-24T09:17:56.730Z,14.02
2018-03-24T09:20:25.643Z,14.13
2018-03-24T09:22:54.810Z,13.90
2018-03-24T09:25:24.267Z,14.36
2018-03-24T09:27:53.176Z,14.41
2018-03-24T09:30:22.404Z,14.45
2018-03-24T09:32:51.301Z,14.47
2018-03-24T09:35:20.218Z,14.32
2018-03-24T09:37:49.044Z,14.57
2018-03-24T09:40:17.957Z,14.95
2018-03-24T09:43:50.710Z,15.01
2018-03-24T09:46:20.352Z,14.90
2018-03-24T09:48:49.526Z,14.96
2018-03-24T09:51:18.435Z,15.14
2018-03-24T09:53:47.380Z,15.68
2018-03-24T09:56:16.771Z,16.04
2018-03-24T09:58:45.639Z,16.10
2018-03-24T10:01:14.564Z,15.97
2018-03-24T10:03:43.754Z,16.56
2018-03-24T10:06:12.679Z,16.84
2018-03-24T10:08:41.617Z,16.21
2018-03-24T10:11:10.847Z,15.40
2018-03-24T10:13:40.313Z,14.89
2018-03-24T10:16:09.611Z,14.70
2018-03-24T10:18:38.970Z,15.00
2018-03-24T10:21:09.135Z,15.26
2018-03-24T10:23:38.535Z,15.27
2018-03-24T10:26:08.146Z,15.62
2018-03-24T10:28:37.067Z,16.12
2018-03-24T10:31:06.580Z,16.69
2018-03-24T10:33:37.841Z,17.06
2018-03-24T10:36:06.762Z,16.60
2018-03-24T10:38:35.626Z,16.93
2018-03-24T10:41:06.282Z,16.83
2018-03-24T10:43:39.955Z,16.65
2018-03-24T10:46:09.335Z,15.69
2018-03-24T10:48:38.204Z,15.50
2018-03-24T10:51:08.078Z,15.30
2018-03-24T10:53:37.247Z,15.10
2018-03-24T10:58:42.493Z,15.17
2018-03-24T11:01:14.366Z,15.75
2018-03-24T11:03:43.654Z,15.58
2018-03-24T11:06:12.980Z,15.26
2018-03-24T11:08:41.924Z,15.38
2018-03-24T11:11:10.824Z,16.13
2018-03-24T11:13:40.106Z,15.93
2018-03-24T11:16:10.106Z,15.82
2018-03-24T11:18:39.026Z,16.27
2018-03-24T11:21:08.291Z,16.94
2018-03-24T11:23:37.233Z,17.67
2018-03-24T11:26:06.438Z,17.98
2018-03-24T11:28:35.842Z,18.06
2018-03-24T11:31:05.930Z,17.92
2018-03-24T11:33:35.108Z,17.90
2018-03-24T11:36:06.070Z,17.54
2018-03-24T11:38:35.242Z,17.34
2018-03-24T11:41:05.322Z,17.35
2018-03-24T11:43:35.577Z,16.97
2018-03-24T11:46:05.629Z,16.38
2018-03-24T11:48:34.672Z,16.05
2018-03-24T11:51:04.982Z,15.74
2018-03-24T11:53:42.939Z,15.81
2018-03-24T11:56:11.909Z,15.75
2018-03-24T11:58:41.099Z,15.63
2018-03-24T12:01:10.227Z,15.68
2018-03-24T12:03:39.434Z,15.67
2018-03-24T12:06:08.455Z,15.66
2018-03-24T12:08:37.930Z,15.70
2018-03-24T12:11:08.398Z,16.21
2018-03-24T12:13:37.336Z,17.00
2018-03-24T12:16:06.509Z,17.56
2018-03-24T12:18:36.434Z,17.94
2018-03-24T12:21:06.108Z,18.07
2018-03-24T12:23:34.957Z,18.02
2018-03-24T12:26:04.977Z,18.30
2018-03-24T12:28:33.867Z,18.34
2018-03-24T12:31:03.137Z,18.65
2018-03-24T12:33:32.327Z,18.77
2018-03-24T12:36:01.419Z,19.51
2018-03-24T12:38:30.420Z,19.86
2018-03-24T12:40:59.576Z,19.44
2018-03-24T12:43:28.463Z,18.93
2018-03-24T12:45:57.383Z,18.61
2018-03-24T12:48:26.619Z,18.34
2018-03-24T12:50:55.597Z,18.00
2018-03-24T12:53:25.450Z,17.82
2018-03-24T12:55:54.686Z,17.12
2018-03-24T12:58:23.593Z,16.98
2018-03-24T13:00:52.583Z,16.57
2018-03-24T13:03:22.080Z,16.28
2018-03-24T13:05:51.092Z,16.10
2018-03-24T13:08:19.970Z,15.97
2018-03-24T13:10:49.114Z,16.04
2018-03-24T13:13:18.013Z,16.94
2018-03-24T13:15:46.918Z,17.70
2018-03-24T13:21:08.880Z,19.79
2018-03-24T13:23:38.326Z,20.58
2018-03-24T13:26:14.156Z,21.32
2018-03-24T13:28:43.658Z,21.77
2018-03-24T13:31:14.079Z,21.59
2018-03-24T13:33:42.972Z,20.92
2018-03-24T13:36:14.193Z,20.28
2018-03-24T13:38:43.898Z,19.73
2018-03-24T13:41:12.842Z,19.77
2018-03-24T13:43:41.804Z,19.37
2018-03-24T13:46:10.891Z,19.05
2018-03-24T13:48:40.128Z,18.85
2018-03-24T13:51:09.184Z,19.06
2018-03-24T13:53:38.289Z,19.48
2018-03-24T13:56:08.419Z,19.45
2018-03-24T13:58:37.318Z,19.70
2018-03-24T14:01:06.691Z,20.21
2018-03-24T14:03:35.879Z,19.65
2018-03-24T14:06:05.836Z,19.50
2018-03-24T14:08:34.771Z,20.31
2018-03-24T14:11:05.357Z,19.73
2018-03-24T14:13:34.431Z,19.26
2018-03-24T14:16:04.328Z,18.59
2018-03-24T14:18:33.806Z,18.26
2018-03-24T14:21:02.778Z,17.67
2018-03-24T14:23:31.713Z,16.78
2018-03-24T14:26:03.257Z,16.77
2018-03-24T14:28:32.139Z,16.52
2018-03-24T14:31:01.140Z,16.35
2018-03-24T14:33:31.311Z,16.44
2018-03-24T14:36:00.216Z,17.75
2018-03-24T14:38:29.106Z,19.85
2018-03-24T14:40:58.358Z,21.74
2018-03-24T14:43:27.305Z,22.56
2018-03-24T14:45:56.713Z,24.05
2018-03-24T14:48:26.080Z,25.40
2018-03-24T14:50:54.992Z,26.06
2018-03-24T14:53:23.945Z,26.59
2018-03-24T14:55:53.440Z,27.02
2018-03-24T14:58:22.363Z,26.76
2018-03-24T15:00:51.431Z,27.29
2018-03-24T15:03:20.734Z,27.61
2018-03-24T15:05:49.658Z,26.88
2018-03-24T15:08:18.620Z,26.84
2018-03-24T15:10:47.843Z,27.05
2018-03-24T15:13:16.685Z,26.20
2018-03-24T15:15:45.572Z,25.32
2018-03-24T15:18:14.776Z,25.13
2018-03-24T15:20:43.644Z,24.40
2018-03-24T15:23:13.421Z,24.37
2018-03-24T15:25:44.574Z,24.53
2018-03-24T15:28:14.436Z,24.48
2018-03-24T15:32:56.453Z,23.61
2018-03-24T15:35:29.595Z,24.34
2018-03-24T15:37:58.698Z,24.15
2018-03-24T15:40:28.032Z,23.93
2018-03-24T15:42:56.930Z,22.71
2018-03-24T15:45:25.935Z,21.86
2018-03-24T15:47:55.435Z,21.04
2018-03-24T15:50:24.538Z,20.92
2018-03-24T15:52:55.536Z,20.33
2018-03-24T15:55:24.770Z,19.55
2018-03-24T15:57:53.851Z,19.23
2018-03-24T16:00:25.382Z,18.80
2018-03-24T16:02:54.607Z,18.67
2018-03-24T16:05:24.410Z,18.00
2018-03-24T16:07:53.624Z,17.94
2018-03-24T16:10:23.096Z,18.37
2018-03-24T16:12:52.114Z,18.30
2018-03-24T16:15:21.153Z,18.34
2018-03-24T16:17:50.412Z,18.51
2018-03-24T16:20:19.977Z,18.13
2018-03-24T16:22:48.948Z,18.11
2018-03-24T16:25:18.827Z,18.10
2018-03-24T16:27:48.651Z,18.27
2018-03-24T16:30:17.598Z,18.13
2018-03-24T16:32:47.014Z,17.83
2018-03-24T16:35:16.023Z,17.66
2018-03-24T16:37:45.029Z,17.78
2018-03-24T16:40:14.014Z,17.67
2018-03-24T16:42:43.007Z,17.53
2018-03-24T16:45:11.927Z,17.36
2018-03-24T16:47:42.322Z,16.66
2018-03-24T16:50:11.337Z,16.43
2018-03-24T16:52:40.542Z,16.19
2018-03-24T16:55:09.472Z,16.07
2018-03-24T16:57:38.491Z,15.96
2018-03-24T17:00:08.822Z,15.71
2018-03-24T17:02:38.232Z,15.54
2018-03-24T17:05:07.372Z,15.40
2018-03-24T17:07:36.372Z,15.18
2018-03-24T17:10:07.767Z,15.07
2018-03-24T17:12:37.785Z,15.01
2018-03-24T17:15:06.980Z,14.78
2018-03-24T17:17:37.226Z,14.70
2018-03-24T17:20:07.044Z,14.76
2018-03-24T17:22:36.007Z,14.65
2018-03-24T17:25:07.561Z,14.59
2018-03-24T17:27:36.515Z,14.48
2018-03-24T17:30:06.743Z,14.32
2018-03-24T17:32:35.975Z,14.22
2018-03-24T17:35:05.996Z,14.17
2018-03-24T17:37:35.527Z,14.11
2018-03-24T17:40:07.090Z,14.08
2018-03-24T17:42:36.046Z,14.00
2018-03-24T17:45:05.342Z,14.01
2018-03-24T17:47:34.553Z,14.00
2018-03-24T17:50:04.147Z,13.91
2018-03-24T17:52:33.148Z,13.84
2018-03-24T17:55:03.461Z,13.76
2018-03-24T17:57:32.392Z,13.69
2018-03-24T18:00:02.118Z,13.64
2018-03-24T18:02:32.300Z,13.48
2018-03-24T18:05:01.447Z,13.42
2018-03-24T18:07:30.450Z,13.21
2018-03-24T18:09:59.647Z,13.14
2018-03-24T18:12:28.684Z,13.14
2018-03-24T18:14:57.667Z,13.12
2018-03-24T18:17:27.887Z,13.08
2018-03-24T18:19:56.773Z,13.07
2018-03-24T18:22:26.150Z,13.03
2018-03-24T18:24:55.385Z,12.95
2018-03-24T18:27:24.331Z,12.86
2018-03-24T18:29:53.574Z,12.75
2018-03-24T18:32:22.466Z,12.67
2018-03-24T18:34:51.487Z,12.64
2018-03-24T18:37:20.405Z,12.55
2018-03-24T18:39:49.823Z,12.58
2018-03-24T18:42:19.343Z,12.58
2018-03-24T18:44:48.556Z,12.52
2018-03-24T18:47:18.771Z,12.47
2018-03-24T18:49:47.980Z,12.47
2018-03-24T18:52:16.944Z,12.45
2018-03-24T18:54:46.296Z,12.45
2018-03-24T18:57:15.231Z,12.43
2018-03-24T18:59:45.659Z,12.44
2018-03-24T19:02:19.622Z,12.44
2018-03-24T19:04:48.859Z,12.45
2018-03-24T19:07:18.536Z,12.39
2018-03-24T19:09:48.052Z,12.39
2018-03-24T19:12:16.983Z,12.39
2018-03-24T19:14:46.338Z,12.31
2018-03-24T19:17:16.086Z,12.27
2018-03-24T19:19:45.725Z,12.27
2018-03-24T19:22:14.705Z,12.20
2018-03-24T19:24:44.055Z,12.18
2018-03-24T19:27:13.016Z,12.09
2018-03-24T19:29:42.036Z,12.02
2018-03-24T19:32:11.843Z,12.01
2018-03-24T19:34:41.096Z,11.95
2018-03-24T19:37:10.105Z,11.87
2018-03-24T19:39:40.567Z,11.81
2018-03-24T19:42:09.524Z,11.83
2018-03-24T19:47:20.626Z,11.71
2018-03-24T19:49:49.677Z,11.70
2018-03-24T19:52:18.596Z,11.74
2018-03-24T19:54:47.796Z,11.62
2018-03-24T19:57:16.730Z,11.55
2018-03-24T19:59:45.752Z,11.47
2018-03-24T20:02:14.996Z,11.49
2018-03-24T20:04:44.017Z,11.41
2018-03-24T20:07:14.431Z,11.36
2018-03-24T20:09:43.497Z,11.30
2018-03-24T20:12:12.529Z,11.25
2018-03-24T20:14:41.627Z,11.26
2018-03-24T20:17:10.992Z,11.26
2018-03-24T20:19:40.027Z,11.28
2018-03-24T20:22:09.050Z,11.27
2018-03-24T20:24:38.440Z,11.22
2018-03-24T20:27:07.661Z,11.11
2018-03-24T20:29:36.712Z,11.11
2018-03-24T20:32:08.021Z,11.09
2018-03-24T20:34:36.972Z,11.13
2018-03-24T20:37:06.252Z,11.10
2018-03-24T20:39:36.787Z,10.99
2018-03-24T20:42:07.609Z,10.89
2018-03-24T20:44:36.456Z,10.92
2018-03-24T20:47:06.194Z,10.88
2018-03-24T20:49:35.204Z,10.92
2018-03-24T20:52:07.240Z,10.89
2018-03-24T20:54:36.432Z,10.89
2018-03-24T20:57:06.165Z,10.89
2018-03-24T20:59:35.150Z,10.86
2018-03-24T21:02:11.695Z,10.85
2018-03-24T21:04:41.586Z,10.83
2018-03-24T21:07:12.854Z,10.84
2018-03-24T21:09:42.365Z,10.82
2018-03-24T21:12:13.586Z,10.79
2018-03-24T21:14:42.638Z,10.77
2018-03-24T21:17:12.845Z,10.77
2018-03-24T21:19:41.740Z,10.78
2018-03-24T21:22:10.776Z,10.76
2018-03-24T21:24:41.222Z,10.75
2018-03-24T21:27:10.135Z,10.76
2018-03-24T21:29:39.125Z,10.77
2018-03-24T21:32:10.271Z,10.75
2018-03-24T21:34:39.296Z,10.72
2018-03-24T21:37:12.444Z,10.67
2018-03-24T21:39:41.710Z,10.66
2018-03-24T21:42:10.644Z,10.61
2018-03-24T21:44:40.303Z,10.53
2018-03-24T21:47:09.520Z,10.50
2018-03-24T21:49:38.404Z,10.47
2018-03-24T21:52:08.262Z,10.40
2018-03-24T21:54:37.555Z,10.34
2018-03-24T21:57:07.381Z,10.34
2018-03-24T21:59:36.379Z,10.30
2018-03-24T22:02:09.150Z,10.23
2018-03-24T22:04:38.134Z,10.16
2018-03-24T22:07:07.233Z,10.15
2018-03-24T22:09:36.145Z,10.13
2018-03-24T22:12:06.207Z,10.10
2018-03-24T22:14:36.131Z,10.03
2018-03-24T22:17:05.172Z,9.99
2018-03-24T22:19:34.595Z,9.94
2018-03-24T22:22:05.254Z,9.93
2018-03-24T22:24:34.284Z,9.90
2018-03-24T22:27:03.334Z,9.84
2018-03-24T22:29:32.517Z,9.76
2018-03-24T22:32:02.259Z,9.76
2018-03-24T22:34:31.185Z,9.70
2018-03-24T22:37:00.371Z,9.63
2018-03-24T22:39:29.275Z,9.67
2018-03-24T22:41:58.233Z,9.54
2018-03-24T22:44:27.654Z,9.55
2018-03-24T22:46:56.545Z,9.51
2018-03-24T22:49:26.342Z,9.54
2018-03-24T22:51:55.576Z,9.51
2018-03-24T22:54:25.786Z,9.45
2018-03-24T22:56:54.819Z,9.40
2018-03-24T22:59:24.076Z,9.42
2018-03-24T23:01:53.159Z,9.39
2018-03-24T23:04:22.045Z,9.39
2018-03-24T23:06:51.317Z,9.37
2018-03-24T23:09:20.462Z,9.37
2018-03-24T23:11:49.745Z,9.32
2018-03-24T23:14:18.999Z,9.25
2018-03-24T23:16:47.951Z,9.24
2018-03-24T23:19:16.819Z,9.23
2018-03-24T23:21:45.755Z,9.16
2018-03-24T23:24:14.628Z,9.11
2018-03-24T23:26:43.751Z,9.08
2018-03-24T23:29:13.052Z,9.06
2018-03-24T23:31:41.929Z,9.05
2018-03-24T23:34:11.672Z,9.02
2018-03-24T23:36:40.792Z,8.97
2018-03-24T23:39:10.249Z,8.99
2018-03-24T23:41:39.119Z,8.95
2018-03-24T23:44:08.516Z,8.94
2018-03-24T23:46:37.543Z,8.89
2018-03-24T23:49:06.539Z,8.85
2018-03-24T23:51:35.823Z,8.74
2018-03-24T23:54:05.955Z,8.70
2018-03-24T23:56:34.809Z,8.71
2018-03-24T23:59:04.706Z,8.71
